Schneifelwetter: Wetterstation Hallschlag, 537 m . NN
Wetterdaten: Freitag, 03.11.2006
Datum Zeit Temp. A. Temp. 2 Feuchte A. Luftdruck Regen Wind Richtung Richtung Sonnenschein Helligkeit T Regen Taupunkt Windchill
03.11.2006 00:09 1,4 C 0,5 C 91 % 1026 hPa 0,0 l/m 13,1 km/h (3 Bft) W22.5 275 0 min 0 lux 0,00 min 0,1 C -4,1 C
03.11.2006 00:24 1,5 C 0,7 C 91 % 1026 hPa 0,0 l/m 16,3 km/h (3 Bft) W45 270 0 min 0 lux 0,00 min 0,2 C -5,9 C
03.11.2006 00:39 1,6 C 1,0 C 91 % 1026 hPa 0,0 l/m 11,8 km/h (2 Bft) W22.5 270 0 min 0 lux 0,00 min 0,3 C -3,0 C
03.11.2006 00:54 1,9 C 1,2 C 92 % 1026 hPa 0,0 l/m 18,3 km/h (3 Bft) W22.5 275 0 min 0 lux 0,00 min 0,7 C -6,4 C
03.11.2006 01:09 1,9 C 1,3 C 92 % 1025 hPa 0,0 l/m 15,6 km/h (3 Bft) W22.5 265 0 min 0 lux 0,00 min 0,7 C -5,0 C
03.11.2006 01:24 2,0 C 1,4 C 91 % 1026 hPa 0,0 l/m 6,9 km/h (2 Bft) W45 260 0 min 0 lux 0,00 min 0,7 C 1,5 C
03.11.2006 01:39 1,9 C 1,4 C 91 % 1026 hPa 0,3 l/m 11,5 km/h (2 Bft) W22.5 265 0 min 0 lux 15,00 min 0,6 C -2,5 C
03.11.2006 01:54 1,9 C 1,4 C 92 % 1026 hPa 0,3 l/m 9,8 km/h (2 Bft) W22.5 270 0 min 0 lux 15,00 min 0,7 C -1,2 C
03.11.2006 02:09 1,9 C 1,4 C 92 % 1025 hPa 0,0 l/m 8,3 km/h (2 Bft) W22.5 270 0 min 0 lux 0,00 min 0,7 C 0,1 C
03.11.2006 02:24 1,9 C 1,4 C 92 % 1025 hPa 0,0 l/m 19,8 km/h (3 Bft) W22.5 280 0 min 0 lux 0,00 min 0,7 C -7,1 C
03.11.2006 02:39 1,9 C 1,5 C 92 % 1026 hPa 0,0 l/m 15,3 km/h (3 Bft) W22.5 275 0 min 0 lux 0,00 min 0,7 C -4,8 C
03.11.2006 02:54 2,0 C 1,6 C 92 % 1025 hPa 0,3 l/m 14,5 km/h (3 Bft) W22.5 275 0 min 0 lux 15,00 min 0,8 C -4,3 C
03.11.2006 03:09 2,0 C 1,6 C 92 % 1025 hPa 0,0 l/m 11,8 km/h (2 Bft) W22.5 265 0 min 0 lux 0,00 min 0,8 C -2,6 C
03.11.2006 03:24 2,0 C 1,5 C 93 % 1025 hPa 0,3 l/m 11,3 km/h (2 Bft) W45 275 0 min 0 lux 15,00 min 1,0 C -2,2 C
03.11.2006 03:39 1,9 C 1,4 C 92 % 1025 hPa 0,3 l/m 3,3 km/h (1 Bft) N-NW22.5 330 0 min 0 lux 15,00 min 0,7 C 1,9 C
03.11.2006 03:54 1,8 C 1,4 C 92 % 1025 hPa 0,0 l/m 5,9 km/h (2 Bft) W22.5 265 0 min 0 lux 0,00 min 0,6 C 1,8 C
03.11.2006 04:09 1,9 C 1,4 C 92 % 1025 hPa 0,0 l/m 10,9 km/h (2 Bft) W45 275 0 min 0 lux 0,00 min 0,7 C -2,0 C
03.11.2006 04:24 1,9 C 1,5 C 93 % 1025 hPa 0,0 l/m 6,8 km/h (2 Bft) W-NW22.5 295 0 min 0 lux 0,00 min 0,9 C 1,5 C
03.11.2006 04:39 2,0 C 1,6 C 93 % 1025 hPa 0,0 l/m 5,8 km/h (2 Bft) W22.5 260 0 min 0 lux 0,00 min 1,0 C 2,0 C
03.11.2006 04:54 2,1 C 1,7 C 93 % 1026 hPa 0,0 l/m 7,9 km/h (2 Bft) W45 280 0 min 0 lux 0,00 min 1,1 C 0,7 C
03.11.2006 05:09 2,2 C 1,7 C 92 % 1026 hPa 0,0 l/m 8,7 km/h (2 Bft) W-NW22.5 285 0 min 0 lux 0,00 min 1,0 C 0,0 C
03.11.2006 05:24 2,2 C 1,7 C 92 % 1026 hPa 0,0 l/m 5,6 km/h (1 Bft) NW22.5 315 0 min 0 lux 0,00 min 1,0 C 2,2 C
03.11.2006 05:39 2,2 C 1,7 C 92 % 1026 hPa 0,0 l/m 3,8 km/h (1 Bft) N-NW22.5 340 0 min 0 lux 0,00 min 1,0 C 2,2 C
03.11.2006 05:55 2,0 C 1,2 C 92 % 1026 hPa 0,0 l/m 5,7 km/h (1 Bft) N-NW22.5 335 0 min 0 lux 0,00 min 0,8 C 2,0 C
03.11.2006 06:10 1,5 C 0,3 C 91 % 1026 hPa 0,0 l/m 0,3 km/h (0 Bft) N-NW 330 0 min 0 lux 0,00 min 0,2 C 1,5 C
03.11.2006 06:25 0,9 C -0,4 C 91 % 1026 hPa 0,0 l/m 1,0 km/h (0 Bft) W 265 0 min 0 lux 0,00 min -0,4 C 0,9 C
03.11.2006 06:40 0,4 C -0,7 C 91 % 1026 hPa 0,0 l/m 1,1 km/h (1 Bft) NW67.5 305 0 min 0 lux 0,00 min -0,9 C 0,4 C
03.11.2006 06:55 0,2 C -0,8 C 91 % 1026 hPa 0,0 l/m 0,1 km/h (0 Bft) W 270 0 min 0 lux 0,00 min -1,1 C 0,2 C
03.11.2006 07:10 0,3 C -0,6 C 92 % 1026 hPa 0,0 l/m 0,0 km/h (0 Bft) W 270 0 min 94 lux 0,00 min -0,8 C 0,3 C
03.11.2006 07:24 0,4 C -0,4 C 92 % 1026 hPa 0,0 l/m 0,0 km/h (0 Bft) W 270 0 min 716 lux 0,00 min -0,7 C 0,4 C
03.11.2006 07:39 0,5 C -0,3 C 92 % 1026 hPa 0,0 l/m 0,0 km/h (0 Bft) W 270 0 min 1,21 klux 0,00 min -0,6 C 0,5 C
03.11.2006 08:00 0,7 C -0,3 C 92 % 1026 hPa 0,0 l/m 0,2 km/h (0 Bft) W 270 0 min 5,07 klux 0,00 min -0,4 C 0,7 C
03.11.2006 08:15 1,1 C -0,1 C 93 % 1026 hPa 0,0 l/m 4,8 km/h (1 Bft) W 260 0 min 5,62 klux 0,00 min 0,1 C 1,1 C
03.11.2006 08:30 1,2 C 0,0 C 93 % 1026 hPa 0,0 l/m 0,3 km/h (0 Bft) W-NW22.5 295 0 min 5,02 klux 0,00 min 0,2 C 1,2 C
03.11.2006 08:45 1,7 C 0,4 C 93 % 1027 hPa 0,0 l/m 4,5 km/h (1 Bft) W-NW45 295 0 min 11,5 klux 0,00 min 0,7 C 1,7 C
03.11.2006 09:00 2,3 C 1,1 C 93 % 1027 hPa 0,0 l/m 9,8 km/h (2 Bft) N-NW22.5 335 0 min 9,1 klux 0,00 min 1,3 C -0,8 C
03.11.2006 09:15 2,7 C 2,0 C 93 % 1027 hPa 0,0 l/m 16,8 km/h (3 Bft) NW45 325 0 min 8,95 klux 0,00 min 1,7 C -4,7 C
03.11.2006 09:30 3,3 C 2,5 C 91 % 1027 hPa 0,0 l/m 18,1 km/h (3 Bft) N-NW45 345 0 min 13,0 klux 0,00 min 2,0 C -4,5 C
03.11.2006 09:45 3,5 C 3,0 C 90 % 1027 hPa 0,0 l/m 20,5 km/h (4 Bft) N45 355 0 min 25,3 klux 0,00 min 2,0 C -5,3 C
03.11.2006 10:00 3,8 C 3,5 C 89 % 1027 hPa 0,0 l/m 16,1 km/h (3 Bft) N-NW45 345 0 min 31,2 klux 0,00 min 2,2 C -2,9 C
03.11.2006 10:15 3,9 C 4,1 C 88 % 1027 hPa 0,0 l/m 17,0 km/h (3 Bft) N45 355 0 min 21,5 klux 0,00 min 2,1 C -3,3 C
03.11.2006 10:30 4,0 C 4,5 C 87 % 1027 hPa 0,0 l/m 19,5 km/h (3 Bft) N45 355 15 min 58,2 klux 0,00 min 2,0 C -4,3 C
03.11.2006 10:46 4,8 C 6,9 C 84 % 1027 hPa 0,0 l/m 17,5 km/h (3 Bft) N67.5 350 16 min 73,8 klux 0,00 min 2,3 C -2,4 C
03.11.2006 11:01 4,5 C 6,2 C 84 % 1027 hPa 0,0 l/m 22,0 km/h (4 Bft) N45 360 0 min 27,5 klux 0,00 min 2,0 C -4,6 C
03.11.2006 11:15 5,2 C 9,2 C 83 % 1027 hPa 0,0 l/m 16,9 km/h (3 Bft) N-NO45 25 14 min 73,9 klux 0,00 min 2,6 C -1,6 C
03.11.2006 11:30 5,3 C 10,4 C 81 % 1027 hPa 0,0 l/m 15,5 km/h (3 Bft) NO22.5 35 15 min 73,2 klux 0,00 min 2,3 C -0,8 C
03.11.2006 11:45 5,6 C 11,3 C 80 % 1027 hPa 0,0 l/m 11,5 km/h (2 Bft) NW22.5 325 15 min 77,4 klux 0,00 min 2,4 C 1,8 C
03.11.2006 12:00 5,4 C 10,9 C 80 % 1027 hPa 0,0 l/m 15,2 km/h (3 Bft) N-NO67.5 15 15 min 74,1 klux 0,00 min 2,2 C -0,5 C
03.11.2006 12:15 5,4 C 9,5 C 77 % 1027 hPa 0,0 l/m 18,8 km/h (3 Bft) N45 355 15 min 62,1 klux 0,00 min 1,7 C -2,2 C
03.11.2006 12:30 6,2 C 11,6 C 77 % 1027 hPa 0,0 l/m 15,0 km/h (3 Bft) N45 350 15 min 79,0 klux 0,00 min 2,5 C 0,5 C
03.11.2006 12:45 6,6 C 11,1 C 74 % 1027 hPa 0,0 l/m 14,0 km/h (3 Bft) N-NW45 340 0 min 45,1 klux 0,00 min 2,3 C 1,5 C
03.11.2006 13:00 6,4 C 10,8 C 74 % 1027 hPa 0,0 l/m 13,0 km/h (3 Bft) N-NO67.5 15 0 min 45,1 klux 0,00 min 2,1 C 1,8 C
03.11.2006 13:15 6,5 C 10,5 C 73 % 1027 hPa 0,0 l/m 13,2 km/h (3 Bft) NW45 315 15 min 58,8 klux 0,00 min 2,0 C 1,8 C
03.11.2006 13:30 6,8 C 10,5 C 74 % 1027 hPa 0,0 l/m 16,8 km/h (3 Bft) W-NW67.5 300 15 min 52,5 klux 0,00 min 2,5 C 0,4 C
03.11.2006 13:45 7,1 C 9,6 C 74 % 1027 hPa 0,0 l/m 6,4 km/h (2 Bft) W22.5 260 0 min 32,9 klux 0,00 min 2,8 C 7,1 C
03.11.2006 14:00 7,2 C 8,7 C 71 % 1027 hPa 0,0 l/m 9,4 km/h (2 Bft) W22.5 275 0 min 19,6 klux 0,00 min 2,3 C 4,9 C
03.11.2006 14:15 6,8 C 8,1 C 71 % 1027 hPa 0,0 l/m 9,5 km/h (2 Bft) NW45 320 0 min 19,7 klux 0,00 min 1,9 C 4,4 C
03.11.2006 14:30 6,6 C 7,5 C 71 % 1027 hPa 0,0 l/m 15,6 km/h (3 Bft) W-NW45 290 0 min 17,6 klux 0,00 min 1,7 C 0,7 C
03.11.2006 14:45 6,2 C 6,8 C 74 % 1027 hPa 0,0 l/m 10,9 km/h (2 Bft) W-NW45 285 0 min 11,6 klux 0,00 min 1,9 C 2,8 C
03.11.2006 15:00 6,0 C 6,4 C 73 % 1027 hPa 0,0 l/m 17,1 km/h (3 Bft) W-NW45 295 0 min 12,5 klux 0,00 min 1,5 C -0,7 C
03.11.2006 15:15 5,9 C 6,0 C 74 % 1027 hPa 0,0 l/m 13,7 km/h (3 Bft) W-NW45 295 0 min 9,8 klux 0,00 min 1,6 C 0,8 C
03.11.2006 15:30 5,9 C 5,8 C 75 % 1027 hPa 0,0 l/m 10,8 km/h (2 Bft) W-NW45 300 0 min 10,4 klux 0,00 min 1,8 C 2,5 C
03.11.2006 15:46 5,6 C 5,5 C 74 % 1027 hPa 0,0 l/m 13,0 km/h (3 Bft) W-NW45 290 0 min 7,60 klux 0,00 min 1,3 C 0,9 C
03.11.2006 16:01 5,5 C 5,2 C 75 % 1027 hPa 0,0 l/m 10,8 km/h (2 Bft) W45 280 0 min 6,50 klux 0,00 min 1,4 C 2,1 C
03.11.2006 16:15 5,3 C 5,0 C 77 % 1027 hPa 0,0 l/m 13,1 km/h (3 Bft) W45 275 0 min 4,07 klux 0,00 min 1,6 C 0,5 C
03.11.2006 16:30 5,1 C 4,6 C 78 % 1027 hPa 0,0 l/m 12,5 km/h (3 Bft) W22.5 270 0 min 3,96 klux 0,00 min 1,6 C 0,6 C
03.11.2006 16:45 4,7 C 4,2 C 78 % 1027 hPa 0,0 l/m 10,6 km/h (2 Bft) W45 280 0 min 3,49 klux 0,00 min 1,2 C 1,3 C
03.11.2006 17:00 4,4 C 3,8 C 79 % 1027 hPa 0,0 l/m 11,0 km/h (2 Bft) W22.5 270 0 min 2,10 klux 0,00 min 1,1 C 0,7 C
03.11.2006 17:15 4,1 C 3,5 C 80 % 1027 hPa 0,0 l/m 9,4 km/h (2 Bft) W22.5 275 0 min 650 lux 0,00 min 1,0 C 1,5 C
03.11.2006 17:30 3,7 C 3,2 C 81 % 1027 hPa 0,0 l/m 8,4 km/h (2 Bft) W22.5 270 0 min 148 lux 0,00 min 0,7 C 1,9 C
03.11.2006 17:45 3,6 C 3,1 C 82 % 1027 hPa 0,0 l/m 9,5 km/h (2 Bft) W22.5 275 0 min 19 lux 0,00 min 0,8 C 0,9 C
03.11.2006 18:00 3,6 C 3,2 C 83 % 1027 hPa 0,0 l/m 13,1 km/h (3 Bft) W22.5 270 0 min 4 lux 0,00 min 1,0 C -1,5 C
03.11.2006 18:15 3,7 C 3,2 C 83 % 1027 hPa 0,0 l/m 13,3 km/h (3 Bft) W22.5 270 0 min 9 lux 0,00 min 1,1 C -1,5 C
03.11.2006 18:30 3,7 C 3,3 C 83 % 1027 hPa 0,0 l/m 13,3 km/h (3 Bft) W22.5 270 0 min 7 lux 0,00 min 1,1 C -1,5 C
03.11.2006 18:45 3,7 C 3,2 C 83 % 1027 hPa 0,0 l/m 10,6 km/h (2 Bft) W22.5 280 0 min 0 lux 0,00 min 1,1 C 0,2 C
03.11.2006 19:00 3,6 C 3,1 C 83 % 1027 hPa 0,0 l/m 9,9 km/h (2 Bft) W22.5 280 0 min 0 lux 0,00 min 1,0 C 0,6 C
03.11.2006 19:15 3,5 C 3,0 C 84 % 1027 hPa 0,3 l/m 9,8 km/h (2 Bft) W22.5 260 0 min 0 lux 15,00 min 1,1 C 0,6 C
03.11.2006 19:30 3,4 C 2,7 C 84 % 1028 hPa 0,0 l/m 14,1 km/h (3 Bft) W45 275 0 min 0 lux 0,00 min 1,0 C -2,4 C
03.11.2006 19:45 3,2 C 2,5 C 85 % 1027 hPa 0,0 l/m 11,1 km/h (2 Bft) W22.5 270 0 min 0 lux 0,00 min 0,9 C -0,7 C
03.11.2006 20:00 3,2 C 2,6 C 86 % 1028 hPa 0,0 l/m 8,9 km/h (2 Bft) W-SW22.5 255 0 min 0 lux 0,00 min 1,1 C 0,9 C
03.11.2006 20:16 3,2 C 2,3 C 86 % 1028 hPa 0,0 l/m 12,0 km/h (2 Bft) W22.5 275 0 min 0 lux 0,00 min 1,1 C -1,3 C
03.11.2006 20:15 3,2 C 2,3 C 86 % 1028 hPa 0,0 l/m 12,0 km/h (2 Bft) W22.5 275 0 min 0 lux 0,00 min 1,1 C -1,3 C
03.11.2006 20:30 3,3 C 2,6 C 87 % 1028 hPa 0,0 l/m 11,6 km/h (2 Bft) W22.5 265 0 min 0 lux 0,00 min 1,3 C -0,9 C
03.11.2006 20:45 3,4 C 2,8 C 87 % 1027 hPa 0,0 l/m 19,4 km/h (3 Bft) W22.5 280 0 min 0 lux 0,00 min 1,4 C -5,0 C
03.11.2006 21:00 3,5 C 3,0 C 88 % 1028 hPa 0,0 l/m 17,8 km/h (3 Bft) W45 275 0 min 0 lux 0,00 min 1,7 C -4,1 C
03.11.2006 21:15 3,5 C 2,9 C 88 % 1028 hPa 0,0 l/m 16,3 km/h (3 Bft) W22.5 280 0 min 0 lux 0,00 min 1,7 C -3,4 C
03.11.2006 21:30 3,5 C 3,0 C 88 % 1028 hPa 0,0 l/m 15,4 km/h (3 Bft) W45 275 0 min 0 lux 0,00 min 1,7 C -3,0 C
03.11.2006 21:45 3,6 C 3,2 C 89 % 1028 hPa 0,0 l/m 21,6 km/h (4 Bft) W22.5 270 0 min 0 lux 0,00 min 2,0 C -5,6 C
03.11.2006 22:00 3,7 C 3,3 C 89 % 1028 hPa 0,0 l/m 16,3 km/h (3 Bft) W22.5 275 0 min 0 lux 0,00 min 2,1 C -3,2 C
03.11.2006 22:15 3,9 C 3,5 C 89 % 1028 hPa 0,0 l/m 14,0 km/h (3 Bft) W45 270 0 min 0 lux 0,00 min 2,3 C -1,7 C
03.11.2006 22:30 4,0 C 3,7 C 89 % 1028 hPa 0,0 l/m 15,8 km/h (3 Bft) W22.5 275 0 min 0 lux 0,00 min 2,4 C -2,5 C
03.11.2006 22:45 4,1 C 3,8 C 90 % 1028 hPa 0,0 l/m 15,0 km/h (3 Bft) W22.5 275 0 min 0 lux 0,00 min 2,6 C -2,0 C
03.11.2006 23:00 4,3 C 3,9 C 90 % 1028 hPa 0,0 l/m 14,8 km/h (3 Bft) W22.5 280 0 min 0 lux 0,00 min 2,8 C -1,7 C
03.11.2006 23:15 4,3 C 4,0 C 90 % 1028 hPa 0,0 l/m 15,5 km/h (3 Bft) W22.5 270 0 min 0 lux 0,00 min 2,8 C -2,0 C
03.11.2006 23:30 4,4 C 4,0 C 90 % 1028 hPa 0,0 l/m 11,3 km/h (2 Bft) W22.5 280 0 min 0 lux 0,00 min 2,9 C 0,5 C
03.11.2006 23:45 4,4 C 4,1 C 90 % 1028 hPa 0,0 l/m 10,1 km/h (2 Bft) W22.5 270 0 min 0 lux 0,00 min 2,9 C 1,3 C
_ Min-Zeit 06:55 06:55 14:00 01:09 - 07:10 - - - - - 06:55 02:24
Minimum _ 0,2 C -0,8 C 71 % 1025 hPa - 0,0 km/h (0 Bft) - - - - - -1,1 C -7,1 C
_ Max-Zeit 14:00 12:30 03:24 19:30 01:39 11:01 - - 10:46 12:30 01:39 23:30 13:45
Maximum _ 7,2 C 11,6 C 93 % 1028 hPa 0,3 l/m 22,0 km/h
N (4 Bft)
- - 16 min 79,0 klux 15,00 min 2,9 C 7,1 C
Durchschnitt _ 3,5 C 3,6 C 86 % 1027 hPa #1,7 l/m 11,5 km/h (2 Bft) W - #2:30 h 11,5 klux #1:30 h 1,3 C -0,7 C